createdAt,value
2022-09-28T00:02:24.298Z,100.00
2022-09-28T00:04:50.963Z,100.00
2022-09-28T00:07:17.471Z,100.00
2022-09-28T00:09:43.986Z,100.00
2022-09-28T00:12:11.356Z,100.00
2022-09-28T00:14:37.927Z,100.00
2022-09-28T00:17:04.497Z,100.00
2022-09-28T00:19:31.185Z,100.00
2022-09-28T00:21:58.648Z,100.00
2022-09-28T00:24:27.657Z,100.00
2022-09-28T00:26:56.830Z,100.00
2022-09-28T00:29:31.710Z,100.00
2022-09-28T00:32:03.674Z,100.00
2022-09-28T00:34:33.512Z,100.00
2022-09-28T00:37:01.246Z,100.00
2022-09-28T00:39:28.597Z,100.00
2022-09-28T00:41:55.148Z,100.00
2022-09-28T00:44:24.622Z,100.00
2022-09-28T00:46:53.300Z,100.00
2022-09-28T00:49:27.670Z,100.00
2022-09-28T00:51:54.586Z,100.00
2022-09-28T00:54:22.109Z,100.00
2022-09-28T00:56:49.009Z,100.00
2022-09-28T00:59:16.266Z,100.00
2022-09-28T01:01:43.094Z,100.00
2022-09-28T01:04:10.019Z,100.00
2022-09-28T01:06:38.973Z,100.00
2022-09-28T01:09:08.628Z,100.00
2022-09-28T01:11:39.345Z,100.00
2022-09-28T01:14:10.143Z,100.00
2022-09-28T01:16:54.258Z,100.00
2022-09-28T01:19:39.516Z,100.00
2022-09-28T01:22:26.402Z,100.00
2022-09-28T01:25:18.994Z,100.00
2022-09-28T01:27:54.605Z,100.00
2022-09-28T01:30:21.742Z,100.00
2022-09-28T01:32:57.572Z,100.00
2022-09-28T01:35:45.812Z,100.00
2022-09-28T01:38:26.819Z,100.00
2022-09-28T01:40:54.718Z,100.00
2022-09-28T01:43:27.431Z,100.00
2022-09-28T01:46:04.601Z,100.00
2022-09-28T01:48:43.895Z,100.00
2022-09-28T01:51:25.127Z,100.00
2022-09-28T01:53:57.284Z,100.00
2022-09-28T01:56:50.599Z,100.00
2022-09-28T01:59:22.438Z,100.00
2022-09-28T02:01:53.832Z,100.00
2022-09-28T02:04:26.922Z,100.00
2022-09-28T02:07:07.669Z,100.00
2022-09-28T02:09:43.530Z,100.00
2022-09-28T02:12:26.943Z,100.00
2022-09-28T02:14:59.696Z,100.00
2022-09-28T02:17:26.339Z,100.00
2022-09-28T02:19:53.070Z,100.00
2022-09-28T02:22:31.734Z,100.00
2022-09-28T02:25:35.291Z,100.00
2022-09-28T02:28:07.138Z,100.00
2022-09-28T02:30:36.665Z,100.00
2022-09-28T02:33:19.113Z,100.00
2022-09-28T02:35:46.226Z,100.00
2022-09-28T02:38:14.495Z,100.00
2022-09-28T02:40:48.224Z,100.00
2022-09-28T02:43:47.037Z,100.00
2022-09-28T02:46:38.012Z,100.00
2022-09-28T02:49:30.107Z,100.00
2022-09-28T02:51:59.356Z,100.00
2022-09-28T02:54:56.534Z,100.00
2022-09-28T02:57:30.512Z,100.00
2022-09-28T03:00:15.995Z,100.00
2022-09-28T03:02:59.121Z,100.00
2022-09-28T03:05:58.109Z,100.00
2022-09-28T03:08:50.033Z,100.00
2022-09-28T03:11:32.718Z,100.00
2022-09-28T03:14:00.040Z,100.00
2022-09-28T03:16:27.657Z,100.00
2022-09-28T03:18:54.386Z,100.00
2022-09-28T03:21:20.905Z,100.00
2022-09-28T03:23:47.951Z,100.00
2022-09-28T03:26:16.164Z,100.00
2022-09-28T03:28:43.091Z,100.00
2022-09-28T03:31:09.687Z,100.00
2022-09-28T03:33:36.414Z,100.00
2022-09-28T03:36:03.047Z,100.00
2022-09-28T03:38:29.583Z,100.00
2022-09-28T03:40:58.270Z,100.00
2022-09-28T03:43:26.640Z,100.00
2022-09-28T03:45:58.162Z,100.00
2022-09-28T03:48:31.374Z,100.00
2022-09-28T03:51:01.823Z,100.00
2022-09-28T03:53:32.239Z,100.00
2022-09-28T03:56:11.802Z,100.00
2022-09-28T03:58:38.336Z,100.00
2022-09-28T04:01:16.569Z,100.00
2022-09-28T04:03:44.664Z,100.00
2022-09-28T04:06:11.865Z,100.00
2022-09-28T04:08:38.844Z,100.00
2022-09-28T04:11:05.950Z,100.00
2022-09-28T04:13:32.472Z,100.00
2022-09-28T04:16:01.272Z,100.00
2022-09-28T04:18:28.648Z,100.00
2022-09-28T04:21:15.769Z,100.00
2022-09-28T04:23:42.576Z,100.00
2022-09-28T04:26:18.357Z,100.00
2022-09-28T04:29:06.757Z,100.00
2022-09-28T04:31:51.971Z,100.00
2022-09-28T04:34:21.134Z,100.00
2022-09-28T04:36:48.142Z,100.00
2022-09-28T04:39:17.764Z,100.00
2022-09-28T04:41:44.364Z,100.00
2022-09-28T04:44:11.210Z,100.00
2022-09-28T04:46:37.782Z,100.00
2022-09-28T04:49:04.409Z,100.00
2022-09-28T04:51:31.910Z,100.00
2022-09-28T04:53:59.174Z,100.00
2022-09-28T04:56:25.855Z,100.00
2022-09-28T04:58:52.946Z,100.00
2022-09-28T05:01:23.991Z,100.00
2022-09-28T05:03:53.895Z,100.00
2022-09-28T05:06:21.070Z,100.00
2022-09-28T05:08:47.690Z,100.00
2022-09-28T05:11:14.843Z,100.00
2022-09-28T05:13:43.765Z,100.00
2022-09-28T05:16:11.664Z,100.00
2022-09-28T05:18:44.737Z,100.00
2022-09-28T05:21:15.798Z,100.00
2022-09-28T05:23:47.327Z,100.00
2022-09-28T05:26:14.259Z,100.00
2022-09-28T05:28:40.805Z,100.00
2022-09-28T05:31:07.653Z,100.00
2022-09-28T05:33:34.634Z,100.00
2022-09-28T05:36:01.917Z,100.00
2022-09-28T05:38:29.935Z,100.00
2022-09-28T05:41:03.191Z,100.00
2022-09-28T05:43:32.561Z,100.00
2022-09-28T05:46:00.433Z,100.00
2022-09-28T05:48:27.677Z,100.00
2022-09-28T05:50:54.616Z,100.00
2022-09-28T05:53:21.692Z,100.00
2022-09-28T05:55:48.799Z,100.00
2022-09-28T05:58:15.890Z,100.00
2022-09-28T06:00:43.020Z,100.00
2022-09-28T06:05:47.461Z,100.00
2022-09-28T06:08:14.178Z,100.00
2022-09-28T06:10:41.153Z,100.00
2022-09-28T06:13:08.532Z,100.00
2022-09-28T06:15:36.260Z,100.00
2022-09-28T06:18:09.229Z,100.00
2022-09-28T06:20:38.133Z,100.00
2022-09-28T06:23:04.793Z,100.00
2022-09-28T06:25:32.195Z,100.00
2022-09-28T06:28:00.957Z,100.00
2022-09-28T06:30:29.250Z,100.00
2022-09-28T06:32:58.382Z,100.00
2022-09-28T06:35:27.330Z,100.00
2022-09-28T06:37:54.210Z,100.00
2022-09-28T06:40:21.647Z,100.00
2022-09-28T06:42:56.751Z,100.00
2022-09-28T06:45:25.381Z,100.00
2022-09-28T06:47:56.799Z,100.00
2022-09-28T06:50:44.637Z,100.00
2022-09-28T06:53:13.753Z,100.00
2022-09-28T06:55:46.157Z,100.00
2022-09-28T06:58:15.491Z,100.00
2022-09-28T07:00:42.084Z,100.00
2022-09-28T07:03:13.041Z,100.00
2022-09-28T07:05:44.980Z,100.00
2022-09-28T07:08:12.062Z,100.00
2022-09-28T07:10:46.396Z,100.00
2022-09-28T07:13:38.672Z,100.00
2022-09-28T07:16:01.899Z,100.00
2022-09-28T07:18:29.979Z,100.00
2022-09-28T07:20:57.508Z,100.00
2022-09-28T07:23:26.227Z,100.00
2022-09-28T07:25:53.153Z,100.00
2022-09-28T07:28:21.142Z,100.00
2022-09-28T07:30:48.263Z,100.00
2022-09-28T07:33:16.255Z,100.00
2022-09-28T07:35:50.998Z,100.00
2022-09-28T07:38:17.786Z,100.00
2022-09-28T07:41:02.838Z,99.41
2022-09-28T07:43:29.499Z,99.40
2022-09-28T07:45:56.120Z,99.34
2022-09-28T07:48:22.973Z,97.73
2022-09-28T07:50:53.669Z,98.68
2022-09-28T07:53:22.404Z,97.82
2022-09-28T07:55:56.847Z,96.99
2022-09-28T07:58:23.545Z,98.13
2022-09-28T08:00:51.027Z,96.34
2022-09-28T08:03:19.401Z,96.62
2022-09-28T08:05:46.963Z,95.15
2022-09-28T08:08:14.623Z,96.00
2022-09-28T08:10:47.338Z,94.90
2022-09-28T08:13:15.358Z,95.52
2022-09-28T08:15:42.630Z,94.39
2022-09-28T08:18:10.070Z,92.25
2022-09-28T08:20:55.198Z,92.89
2022-09-28T08:23:21.883Z,94.12
2022-09-28T08:25:49.208Z,91.94
2022-09-28T08:28:17.744Z,93.19
2022-09-28T08:30:45.879Z,90.11
2022-09-28T08:33:23.607Z,90.51
2022-09-28T08:35:57.954Z,90.44
2022-09-28T08:38:26.787Z,88.39
2022-09-28T08:40:57.098Z,90.82
2022-09-28T08:43:51.114Z,93.89
2022-09-28T08:46:23.879Z,92.32
2022-09-28T08:49:30.872Z,89.26
2022-09-28T08:51:59.513Z,87.72
2022-09-28T08:54:36.501Z,87.96
2022-09-28T08:57:14.085Z,87.52
2022-09-28T08:59:56.083Z,86.86
2022-09-28T09:02:29.189Z,87.91
2022-09-28T09:04:57.577Z,86.36
2022-09-28T09:07:40.023Z,84.25
2022-09-28T09:10:46.266Z,84.60
2022-09-28T09:13:46.684Z,86.06
2022-09-28T09:16:34.581Z,85.76
2022-09-28T09:19:17.217Z,84.29
2022-09-28T09:22:05.221Z,84.16
2022-09-28T09:25:07.728Z,81.33
2022-09-28T09:27:34.177Z,80.83
2022-09-28T09:30:01.190Z,78.92
2022-09-28T09:32:59.960Z,78.13
2022-09-28T09:35:38.210Z,78.29
2022-09-28T09:38:07.837Z,82.76
2022-09-28T09:40:42.047Z,82.20
2022-09-28T09:43:20.583Z,82.04
2022-09-28T09:45:53.206Z,78.33
2022-09-28T09:48:38.646Z,81.64
2022-09-28T09:51:17.928Z,80.93
2022-09-28T09:54:00.221Z,81.13
2022-09-28T09:56:35.358Z,82.59
2022-09-28T09:59:08.226Z,80.33
2022-09-28T10:01:40.322Z,78.73
2022-09-28T10:04:17.409Z,78.46
2022-09-28T10:06:44.002Z,76.43
2022-09-28T10:09:20.597Z,74.82
2022-09-28T10:11:52.190Z,74.04
2022-09-28T10:14:24.095Z,76.91
2022-09-28T10:16:54.431Z,76.37
2022-09-28T10:19:30.465Z,77.74
2022-09-28T10:21:59.996Z,75.32
2022-09-28T10:24:36.845Z,72.65
2022-09-28T10:27:08.075Z,72.39
2022-09-28T10:29:44.324Z,71.79
2022-09-28T10:32:43.789Z,72.26
2022-09-28T10:35:19.582Z,70.84
2022-09-28T10:38:07.568Z,70.89
2022-09-28T10:40:40.491Z,74.34
2022-09-28T10:43:18.750Z,75.70
2022-09-28T10:45:45.715Z,74.92
2022-09-28T10:48:22.208Z,75.14
2022-09-28T10:51:06.553Z,75.21
2022-09-28T10:53:38.647Z,70.77
2022-09-28T10:56:08.866Z,72.52
2022-09-28T10:58:41.938Z,74.46
2022-09-28T11:01:12.139Z,72.55
2022-09-28T11:03:47.900Z,72.79
2022-09-28T11:06:14.832Z,73.15
2022-09-28T11:08:45.809Z,74.17
2022-09-28T11:11:14.802Z,76.56
2022-09-28T11:13:47.532Z,73.56
2022-09-28T11:16:32.471Z,72.85
2022-09-28T11:19:04.703Z,71.37
2022-09-28T11:21:42.592Z,74.21
2022-09-28T11:24:15.527Z,73.89
2022-09-28T11:27:19.718Z,74.14
2022-09-28T11:29:56.016Z,75.42
2022-09-28T11:32:30.630Z,73.97
2022-09-28T11:35:00.499Z,73.76
2022-09-28T11:37:42.407Z,72.02
2022-09-28T11:40:27.022Z,74.71
2022-09-28T11:43:21.875Z,72.61
2022-09-28T11:46:40.154Z,73.67
2022-09-28T11:49:37.644Z,73.44
2022-09-28T11:52:10.919Z,73.55
2022-09-28T11:54:47.418Z,75.22
2022-09-28T11:57:24.034Z,73.84
2022-09-28T12:00:06.867Z,71.51
2022-09-28T12:02:39.749Z,72.12
2022-09-28T12:05:17.109Z,72.47
2022-09-28T12:07:52.140Z,71.35
2022-09-28T12:10:27.017Z,69.04
2022-09-28T12:13:13.407Z,72.90
2022-09-28T12:16:32.720Z,72.66
2022-09-28T12:21:52.754Z,73.25
2022-09-28T12:24:37.808Z,72.46
2022-09-28T12:27:10.330Z,72.08
2022-09-28T12:29:47.484Z,73.31
2022-09-28T12:32:32.719Z,71.46
2022-09-28T12:34:59.434Z,69.70
2022-09-28T12:37:56.882Z,71.16
2022-09-28T12:40:37.888Z,71.85
2022-09-28T12:43:41.446Z,70.71
2022-09-28T12:46:34.968Z,69.21
2022-09-28T12:49:51.518Z,67.62
2022-09-28T12:52:00.405Z,66.24
2022-09-28T12:54:42.522Z,67.15
2022-09-28T12:57:40.932Z,63.60
2022-09-28T13:00:22.770Z,62.64
2022-09-28T13:03:19.516Z,64.78
2022-09-28T13:05:57.150Z,64.13
2022-09-28T13:08:44.838Z,67.75
2022-09-28T13:11:42.472Z,63.84
2022-09-28T13:14:40.753Z,61.99
2022-09-28T13:17:16.249Z,65.32
2022-09-28T13:19:59.428Z,65.24
2022-09-28T13:22:50.567Z,63.23
2022-09-28T13:25:20.609Z,64.67
2022-09-28T13:27:58.469Z,61.68
2022-09-28T13:30:25.741Z,62.33
2022-09-28T13:32:56.258Z,62.68
2022-09-28T13:35:23.523Z,64.91
2022-09-28T13:38:18.934Z,68.31
2022-09-28T13:41:03.800Z,64.50
2022-09-28T13:43:47.947Z,64.26
2022-09-28T13:46:28.341Z,67.89
2022-09-28T13:49:17.243Z,67.96
2022-09-28T13:52:13.572Z,69.25
2022-09-28T13:54:52.774Z,70.51
2022-09-28T13:57:36.337Z,71.77
2022-09-28T14:00:27.289Z,71.55
2022-09-28T14:03:04.412Z,73.47
2022-09-28T14:05:47.117Z,75.32
2022-09-28T14:08:26.934Z,76.86
2022-09-28T14:10:57.309Z,77.05
2022-09-28T14:13:42.536Z,76.36
2022-09-28T14:16:17.935Z,78.03
2022-09-28T14:19:04.783Z,77.12
2022-09-28T14:21:45.120Z,75.78
2022-09-28T14:24:11.874Z,75.94
2022-09-28T14:26:53.732Z,73.86
2022-09-28T14:29:29.543Z,71.38
2022-09-28T14:31:59.373Z,69.45
2022-09-28T14:34:33.759Z,71.20
2022-09-28T14:37:22.396Z,71.24
2022-09-28T14:40:08.037Z,70.08
2022-09-28T14:42:34.616Z,70.46
2022-09-28T14:45:06.670Z,70.76
2022-09-28T14:47:37.107Z,73.40
2022-09-28T14:50:26.826Z,73.27
2022-09-28T14:53:04.935Z,73.48
2022-09-28T14:55:38.910Z,75.43
2022-09-28T14:58:10.797Z,75.41
2022-09-28T15:00:39.158Z,76.07
2022-09-28T15:03:12.034Z,77.41
2022-09-28T15:05:44.168Z,76.01
2022-09-28T15:08:11.925Z,80.05
2022-09-28T15:10:45.282Z,80.96
2022-09-28T15:13:40.847Z,82.14
2022-09-28T15:16:11.454Z,82.18
2022-09-28T15:19:18.866Z,81.62
2022-09-28T15:21:47.704Z,81.99
2022-09-28T15:24:25.024Z,80.96
2022-09-28T15:26:51.606Z,80.61
2022-09-28T15:29:19.655Z,80.29
2022-09-28T15:31:48.964Z,83.17
2022-09-28T15:34:54.734Z,84.74
2022-09-28T15:37:27.649Z,81.66
2022-09-28T15:39:56.333Z,81.14
2022-09-28T15:42:23.083Z,81.01
2022-09-28T15:45:13.826Z,79.83
2022-09-28T15:47:43.572Z,76.65
2022-09-28T15:50:55.072Z,75.71
2022-09-28T15:53:21.616Z,73.78
2022-09-28T15:55:50.470Z,73.09
2022-09-28T15:58:24.406Z,72.54
2022-09-28T16:01:31.985Z,72.66
2022-09-28T16:03:59.380Z,73.31
2022-09-28T16:06:25.932Z,74.24
2022-09-28T16:08:52.450Z,74.45
2022-09-28T16:11:28.301Z,75.27
2022-09-28T16:13:57.232Z,75.32
2022-09-28T16:16:30.814Z,76.22
2022-09-28T16:19:00.636Z,78.17
2022-09-28T16:21:45.833Z,76.29
2022-09-28T16:24:24.610Z,76.38
2022-09-28T16:27:28.315Z,76.95
2022-09-28T16:30:24.218Z,78.24
2022-09-28T16:32:52.276Z,79.64
2022-09-28T16:35:48.838Z,79.74
2022-09-28T16:38:17.644Z,80.54
2022-09-28T16:40:49.425Z,81.62
2022-09-28T16:43:19.419Z,82.46
2022-09-28T16:45:46.379Z,83.20
2022-09-28T16:48:16.146Z,83.57
2022-09-28T16:50:42.738Z,84.64
2022-09-28T16:53:33.099Z,84.74
2022-09-28T16:56:00.822Z,84.62
2022-09-28T16:58:28.855Z,84.73
2022-09-28T17:00:55.609Z,85.02
2022-09-28T17:03:23.561Z,85.78
2022-09-28T17:05:51.123Z,84.99
2022-09-28T17:08:20.328Z,85.23
2022-09-28T17:11:18.000Z,86.38
2022-09-28T17:13:46.205Z,82.73
2022-09-28T17:16:36.696Z,83.42
2022-09-28T17:19:08.802Z,81.84
2022-09-28T17:21:35.771Z,83.68
2022-09-28T17:24:02.577Z,84.94
2022-09-28T17:26:35.034Z,86.39
2022-09-28T17:29:02.069Z,85.83
2022-09-28T17:31:30.286Z,85.58
2022-09-28T17:33:57.131Z,89.39
2022-09-28T17:36:26.855Z,89.61
2022-09-28T17:38:55.137Z,88.80
2022-09-28T17:41:21.844Z,89.18
2022-09-28T17:43:49.353Z,88.24
2022-09-28T17:46:22.268Z,87.66
2022-09-28T17:48:49.976Z,89.69
2022-09-28T17:51:16.738Z,89.86
2022-09-28T17:53:43.492Z,89.67
2022-09-28T17:56:10.258Z,89.25
2022-09-28T17:58:38.945Z,89.40
2022-09-28T18:01:05.988Z,88.74
2022-09-28T18:03:32.816Z,88.90
2022-09-28T18:06:01.496Z,88.89
2022-09-28T18:08:28.294Z,90.55
2022-09-28T18:10:57.032Z,91.03
2022-09-28T18:13:24.621Z,90.70
2022-09-28T18:15:52.517Z,90.67
2022-09-28T18:18:19.897Z,90.05
2022-09-28T18:20:46.607Z,89.68
2022-09-28T18:23:13.567Z,89.70
2022-09-28T18:25:41.990Z,90.64
2022-09-28T18:28:09.478Z,90.69
2022-09-28T18:30:42.519Z,90.14
2022-09-28T18:33:10.897Z,90.48
2022-09-28T18:35:38.967Z,90.61
2022-09-28T18:38:07.758Z,89.95
2022-09-28T18:40:35.971Z,89.59
2022-09-28T18:43:03.697Z,89.22
2022-09-28T18:45:30.569Z,89.07
2022-09-28T18:47:57.932Z,88.46
2022-09-28T18:50:24.756Z,87.90
2022-09-28T18:52:51.810Z,87.77
2022-09-28T18:55:20.682Z,87.37
2022-09-28T18:57:47.924Z,86.90
2022-09-28T19:00:15.411Z,86.66
2022-09-28T19:02:46.410Z,87.06
2022-09-28T19:05:13.463Z,87.86
2022-09-28T19:07:40.737Z,88.31
2022-09-28T19:10:08.193Z,89.66
2022-09-28T19:12:35.217Z,89.41
2022-09-28T19:15:01.962Z,89.62
2022-09-28T19:17:29.324Z,89.59
2022-09-28T19:19:56.029Z,89.60
2022-09-28T19:22:24.251Z,89.77
2022-09-28T19:24:50.929Z,90.01
2022-09-28T19:27:17.737Z,90.38
2022-09-28T19:29:44.367Z,89.84
2022-09-28T19:32:12.832Z,90.12
2022-09-28T19:34:39.423Z,91.14
2022-09-28T19:37:06.333Z,91.69
2022-09-28T19:39:33.564Z,92.33
2022-09-28T19:42:01.389Z,92.47
2022-09-28T19:44:29.958Z,93.16
2022-09-28T19:47:04.284Z,93.25
2022-09-28T19:49:33.323Z,92.66
2022-09-28T19:52:12.858Z,92.51
2022-09-28T19:55:00.427Z,93.74
2022-09-28T19:57:29.788Z,93.87
2022-09-28T20:00:02.145Z,93.68
2022-09-28T20:02:30.107Z,94.60
2022-09-28T20:04:56.689Z,94.37
2022-09-28T20:07:23.459Z,94.16
2022-09-28T20:09:50.051Z,94.65
2022-09-28T20:12:16.707Z,94.68
2022-09-28T20:14:43.577Z,94.86
2022-09-28T20:17:10.531Z,94.79
2022-09-28T20:19:37.274Z,95.41
2022-09-28T20:22:04.152Z,95.67
2022-09-28T20:24:32.442Z,95.39
2022-09-28T20:26:59.307Z,95.96
2022-09-28T20:29:26.770Z,95.63
2022-09-28T20:31:53.447Z,95.43
2022-09-28T20:34:20.347Z,95.35
2022-09-28T20:36:47.100Z,94.83
2022-09-28T20:39:15.216Z,94.82
2022-09-28T20:41:42.029Z,95.29
2022-09-28T20:44:09.842Z,95.04
2022-09-28T20:46:37.169Z,95.58
2022-09-28T20:49:05.281Z,95.64
2022-09-28T20:51:33.511Z,95.99
2022-09-28T20:54:00.352Z,95.95
2022-09-28T20:56:29.634Z,96.40
2022-09-28T20:58:56.992Z,96.42
2022-09-28T21:01:31.037Z,96.34
2022-09-28T21:04:03.164Z,96.25
2022-09-28T21:06:37.296Z,96.08
2022-09-28T21:09:08.178Z,96.10
2022-09-28T21:11:35.968Z,96.42
2022-09-28T21:14:04.515Z,96.33
2022-09-28T21:16:32.920Z,96.64
2022-09-28T21:18:59.694Z,96.73
2022-09-28T21:21:27.135Z,97.18
2022-09-28T21:23:54.956Z,97.05
2022-09-28T21:26:26.488Z,97.35
2022-09-28T21:28:54.253Z,97.38
2022-09-28T21:31:27.660Z,96.93
2022-09-28T21:33:56.275Z,96.49
2022-09-28T21:36:22.885Z,96.43
2022-09-28T21:38:49.570Z,96.18
2022-09-28T21:41:16.451Z,96.30
2022-09-28T21:43:43.190Z,95.86
2022-09-28T21:46:10.204Z,95.38
2022-09-28T21:48:41.981Z,95.74
2022-09-28T21:51:12.530Z,94.83
2022-09-28T21:53:39.527Z,95.13
2022-09-28T21:56:09.801Z,95.09
2022-09-28T21:58:38.483Z,94.25
2022-09-28T22:01:16.902Z,94.08
2022-09-28T22:03:47.485Z,94.34
2022-09-28T22:06:15.731Z,93.97
2022-09-28T22:08:42.656Z,93.35
2022-09-28T22:11:12.123Z,92.90
2022-09-28T22:13:47.369Z,92.97
2022-09-28T22:16:16.311Z,93.21
2022-09-28T22:18:43.695Z,92.58
2022-09-28T22:21:15.336Z,92.53
2022-09-28T22:23:42.871Z,92.42
2022-09-28T22:26:18.078Z,92.31
2022-09-28T22:28:47.865Z,92.83
2022-09-28T22:31:15.917Z,92.82
2022-09-28T22:33:42.559Z,93.06
2022-09-28T22:36:09.259Z,93.87
2022-09-28T22:38:36.303Z,93.86
2022-09-28T22:41:03.976Z,93.74
2022-09-28T22:43:31.979Z,94.04
2022-09-28T22:46:16.629Z,93.52
2022-09-28T22:48:54.505Z,93.50
2022-09-28T22:51:22.829Z,93.35
2022-09-28T22:53:50.040Z,93.58
2022-09-28T22:56:19.073Z,94.05
2022-09-28T22:58:47.436Z,93.64
2022-09-28T23:01:22.407Z,93.75
2022-09-28T23:03:51.004Z,93.31
2022-09-28T23:06:20.035Z,92.53
2022-09-28T23:08:48.037Z,92.72
2022-09-28T23:11:15.400Z,92.05
2022-09-28T23:13:43.019Z,91.29
2022-09-28T23:16:14.849Z,90.75
2022-09-28T23:18:42.092Z,92.08
2022-09-28T23:21:23.253Z,92.05
2022-09-28T23:23:58.830Z,92.02
2022-09-28T23:26:29.062Z,91.68
2022-09-28T23:28:56.213Z,90.89
2022-09-28T23:31:31.697Z,89.53
2022-09-28T23:34:07.557Z,89.54
2022-09-28T23:36:34.874Z,90.77
2022-09-28T23:39:02.133Z,91.33
2022-09-28T23:41:29.697Z,91.19
2022-09-28T23:43:56.452Z,91.28
2022-09-28T23:46:23.544Z,91.70
2022-09-28T23:48:59.857Z,92.33
2022-09-28T23:51:26.696Z,92.03
2022-09-28T23:53:53.333Z,92.75
2022-09-28T23:56:20.084Z,93.54
2022-09-28T23:58:46.728Z,93.84
